createdAt,value
2017-08-04T00:02:03.475Z,3.20
2017-08-04T00:04:31.752Z,2.70
2017-08-04T00:06:59.997Z,3.20
2017-08-04T00:09:27.466Z,2.87
2017-08-04T00:11:54.978Z,3.17
2017-08-04T00:14:22.454Z,3.03
2017-08-04T00:16:49.966Z,3.00
2017-08-04T00:19:18.235Z,2.90
2017-08-04T00:21:46.512Z,3.07
2017-08-04T00:24:14.794Z,3.30
2017-08-04T00:26:43.045Z,2.30
2017-08-04T00:29:10.533Z,2.83
2017-08-04T00:31:38.089Z,2.93
2017-08-04T00:34:05.577Z,3.20
2017-08-04T00:36:33.107Z,2.80
2017-08-04T00:39:01.372Z,2.80
2017-08-04T00:41:28.854Z,2.60
2017-08-04T00:43:56.364Z,2.50
2017-08-04T00:46:23.854Z,2.77
2017-08-04T00:48:52.088Z,3.50
2017-08-04T00:51:19.586Z,2.20
2017-08-04T00:53:47.862Z,2.93
2017-08-04T00:56:16.230Z,2.80
2017-08-04T00:58:43.795Z,3.43
2017-08-04T01:01:12.089Z,2.70
2017-08-04T01:03:40.341Z,3.30
2017-08-04T01:06:07.910Z,3.90
2017-08-04T01:08:36.145Z,3.83
2017-08-04T01:11:03.759Z,3.50
2017-08-04T01:13:32.030Z,4.10
2017-08-04T01:16:00.311Z,3.77
2017-08-04T01:18:27.806Z,2.97
2017-08-04T01:20:55.282Z,2.53
2017-08-04T01:23:22.773Z,3.10
2017-08-04T01:25:51.031Z,3.00
2017-08-04T01:28:18.609Z,3.27
2017-08-04T01:30:46.848Z,2.67
2017-08-04T01:33:14.358Z,2.90
2017-08-04T01:35:41.897Z,3.30
2017-08-04T01:38:09.464Z,2.90
2017-08-04T01:40:37.756Z,2.73
2017-08-04T01:43:06.006Z,3.03
2017-08-04T01:45:33.491Z,3.37
2017-08-04T01:48:01.027Z,2.90
2017-08-04T01:50:29.315Z,2.90
2017-08-04T01:52:57.586Z,2.90
2017-08-04T01:55:25.861Z,2.87
2017-08-04T01:57:54.099Z,3.00
2017-08-04T02:00:21.593Z,2.60
2017-08-04T02:02:49.868Z,2.63
2017-08-04T02:05:17.923Z,2.90
2017-08-04T02:07:45.395Z,2.80
2017-08-04T02:10:14.283Z,3.43
2017-08-04T02:12:42.577Z,3.20
2017-08-04T02:15:10.840Z,3.10
2017-08-04T02:17:39.095Z,2.83
2017-08-04T02:20:06.576Z,2.80
2017-08-04T02:22:34.844Z,3.10
2017-08-04T02:25:02.415Z,3.43
2017-08-04T02:27:30.691Z,3.33
2017-08-04T02:29:58.937Z,2.73
2017-08-04T02:32:26.530Z,3.30
2017-08-04T02:34:54.812Z,4.20
2017-08-04T02:37:22.315Z,4.27
2017-08-04T02:39:49.802Z,4.03
2017-08-04T02:42:17.379Z,4.10
2017-08-04T02:44:45.621Z,3.43
2017-08-04T02:47:19.864Z,4.40
2017-08-04T02:49:47.435Z,4.00
2017-08-04T02:52:15.698Z,4.43
2017-08-04T02:54:43.268Z,4.67
2017-08-04T02:57:11.543Z,4.33
2017-08-04T02:59:39.807Z,4.30
2017-08-04T03:02:08.094Z,4.10
2017-08-04T03:04:36.367Z,3.90
2017-08-04T03:07:04.600Z,4.20
2017-08-04T03:09:32.093Z,4.27
2017-08-04T03:11:59.571Z,4.20
2017-08-04T03:14:27.843Z,3.30
2017-08-04T03:16:56.072Z,4.07
2017-08-04T03:19:23.572Z,3.40
2017-08-04T03:21:51.855Z,3.60
2017-08-04T03:24:20.121Z,4.00
2017-08-04T03:26:48.386Z,3.70
2017-08-04T03:29:15.957Z,3.90
2017-08-04T03:31:44.240Z,4.40
2017-08-04T03:34:11.796Z,3.87
2017-08-04T03:36:40.066Z,4.17
2017-08-04T03:39:07.544Z,3.63
2017-08-04T03:41:35.087Z,3.60
2017-08-04T03:44:03.344Z,3.47
2017-08-04T03:46:30.862Z,3.57
2017-08-04T03:48:58.387Z,3.00
2017-08-04T03:51:26.634Z,3.77
2017-08-04T03:53:54.221Z,3.23
2017-08-04T03:56:22.493Z,4.30
2017-08-04T03:58:50.737Z,4.43
2017-08-04T04:01:18.200Z,3.93
2017-08-04T04:03:45.714Z,4.30
2017-08-04T04:06:13.194Z,4.33
2017-08-04T04:08:40.703Z,7.10
2017-08-04T04:11:08.981Z,4.97
2017-08-04T04:13:37.254Z,5.57
2017-08-04T04:16:05.533Z,4.73
2017-08-04T04:18:33.805Z,4.07
2017-08-04T04:21:02.051Z,5.30
2017-08-04T04:23:29.526Z,6.60
2017-08-04T04:25:57.012Z,4.60
2017-08-04T04:28:25.253Z,4.77
2017-08-04T04:30:52.841Z,4.70
2017-08-04T04:33:21.117Z,4.00
2017-08-04T04:35:49.492Z,4.73
2017-08-04T04:38:17.770Z,4.70
2017-08-04T04:40:46.047Z,5.10
2017-08-04T04:43:13.606Z,5.20
2017-08-04T04:45:41.866Z,4.63
2017-08-04T04:48:09.437Z,4.70
2017-08-04T04:50:37.679Z,4.90
2017-08-04T04:53:05.181Z,5.50
2017-08-04T04:55:33.464Z,5.30
2017-08-04T04:58:01.011Z,4.50
2017-08-04T05:00:29.292Z,5.80
2017-08-04T05:02:56.794Z,5.20
2017-08-04T05:05:24.264Z,5.40
2017-08-04T05:07:51.860Z,5.43
2017-08-04T05:10:20.142Z,6.20
2017-08-04T05:12:53.775Z,5.17
2017-08-04T05:18:14.168Z,5.83
2017-08-04T05:20:42.428Z,5.60
2017-08-04T05:23:10.742Z,5.30
2017-08-04T05:28:31.086Z,5.63
2017-08-04T05:30:58.565Z,4.70
2017-08-04T05:33:26.127Z,5.83
2017-08-04T05:35:53.705Z,5.07
2017-08-04T05:38:21.972Z,5.97
2017-08-04T05:40:49.521Z,5.10
2017-08-04T05:43:17.772Z,5.33
2017-08-04T05:45:45.254Z,4.47
2017-08-04T05:48:12.818Z,4.30
2017-08-04T05:50:41.102Z,4.53
2017-08-04T05:53:09.372Z,5.17
2017-08-04T05:55:37.658Z,4.33
2017-08-04T05:58:05.914Z,4.33
2017-08-04T06:00:33.407Z,3.60
2017-08-04T06:03:00.952Z,3.90
2017-08-04T06:05:29.229Z,3.97
2017-08-04T06:07:57.510Z,4.03
2017-08-04T06:10:25.871Z,4.43
2017-08-04T06:12:56.577Z,4.50
2017-08-04T06:15:24.051Z,4.43
2017-08-04T06:17:51.548Z,4.60
2017-08-04T06:20:19.043Z,3.63
2017-08-04T06:22:46.545Z,4.07
2017-08-04T06:25:14.785Z,3.83
2017-08-04T06:27:42.386Z,3.63
2017-08-04T06:30:10.666Z,3.80
2017-08-04T06:32:38.224Z,3.70
2017-08-04T06:35:06.525Z,3.53
2017-08-04T06:37:34.049Z,3.07
2017-08-04T06:40:02.293Z,3.10
2017-08-04T06:42:29.809Z,3.50
2017-08-04T06:44:57.289Z,3.03
2017-08-04T06:47:24.788Z,2.70
2017-08-04T06:50:04.358Z,2.33
2017-08-04T06:52:43.976Z,1.83
2017-08-04T06:55:20.306Z,2.03
2017-08-04T06:57:47.810Z,2.13
2017-08-04T07:00:16.087Z,2.30
2017-08-04T07:02:44.365Z,1.90
2017-08-04T07:05:11.890Z,1.90
2017-08-04T07:07:39.393Z,1.47
2017-08-04T07:10:07.070Z,2.03
2017-08-04T07:12:34.607Z,1.87
2017-08-04T07:15:02.874Z,1.60
2017-08-04T07:17:31.123Z,1.70
2017-08-04T07:19:58.706Z,1.50
2017-08-04T07:22:26.999Z,1.50
2017-08-04T07:24:54.542Z,1.70
2017-08-04T07:27:22.799Z,1.70
2017-08-04T07:29:50.276Z,1.70
2017-08-04T07:32:18.560Z,1.50
2017-08-04T07:34:46.827Z,1.50
2017-08-04T07:37:14.329Z,1.53
2017-08-04T07:39:41.862Z,1.53
2017-08-04T07:42:09.415Z,1.33
2017-08-04T07:44:37.682Z,1.40
2017-08-04T07:47:05.929Z,1.67
2017-08-04T07:49:33.434Z,1.50
2017-08-04T07:52:01.790Z,1.87
2017-08-04T07:54:30.029Z,1.30
2017-08-04T07:56:57.627Z,1.53
2017-08-04T07:59:25.916Z,1.30
2017-08-04T08:01:54.144Z,1.50
2017-08-04T08:04:21.636Z,1.23
2017-08-04T08:06:49.132Z,1.40
2017-08-04T08:09:16.610Z,1.20
2017-08-04T08:11:44.089Z,1.60
2017-08-04T08:14:11.597Z,1.37
2017-08-04T08:16:39.076Z,1.33
2017-08-04T08:19:06.586Z,1.43
2017-08-04T08:21:34.864Z,1.13
2017-08-04T08:24:02.426Z,1.20
2017-08-04T08:26:30.754Z,1.20
2017-08-04T08:28:58.263Z,1.13
2017-08-04T08:31:26.526Z,1.37
2017-08-04T08:33:54.094Z,1.30
2017-08-04T08:36:22.372Z,1.23
2017-08-04T08:38:50.623Z,1.20
2017-08-04T08:41:18.208Z,1.27
2017-08-04T08:43:46.486Z,1.30
2017-08-04T08:46:14.753Z,1.10
2017-08-04T08:48:42.309Z,1.50
2017-08-04T08:51:09.787Z,1.30
2017-08-04T08:53:38.029Z,1.40
2017-08-04T08:56:05.629Z,1.37
2017-08-04T08:58:33.909Z,1.40
2017-08-04T09:01:02.274Z,1.30
2017-08-04T09:03:30.517Z,1.43
2017-08-04T09:05:57.997Z,1.20
2017-08-04T09:08:26.279Z,1.40
2017-08-04T09:10:54.523Z,1.20
2017-08-04T09:13:22.093Z,1.03
2017-08-04T09:15:49.696Z,1.13
2017-08-04T09:18:17.181Z,1.40
2017-08-04T09:20:44.666Z,1.10
2017-08-04T09:23:12.155Z,1.13
2017-08-04T09:25:40.432Z,1.30
2017-08-04T09:28:08.678Z,1.00
2017-08-04T09:30:36.149Z,1.33
2017-08-04T09:33:03.723Z,1.20
2017-08-04T09:35:31.997Z,1.97
2017-08-04T09:37:59.562Z,1.37
2017-08-04T09:40:27.814Z,1.30
2017-08-04T09:42:56.088Z,1.43
2017-08-04T09:45:23.570Z,1.30
2017-08-04T09:47:51.826Z,1.07
2017-08-04T09:50:19.399Z,1.20
2017-08-04T09:52:47.638Z,1.20
2017-08-04T09:55:15.114Z,1.40
2017-08-04T09:57:42.692Z,1.40
2017-08-04T10:00:11.075Z,1.43
2017-08-04T10:02:39.348Z,1.30
2017-08-04T10:05:07.603Z,1.10
2017-08-04T10:07:35.200Z,1.30
2017-08-04T10:10:03.450Z,1.10
2017-08-04T10:12:31.011Z,1.20
2017-08-04T10:14:58.487Z,1.10
2017-08-04T10:17:26.766Z,1.30
2017-08-04T10:19:55.047Z,1.30
2017-08-04T10:22:22.540Z,1.40
2017-08-04T10:24:50.060Z,1.17
2017-08-04T10:27:18.316Z,1.43
2017-08-04T10:29:46.601Z,1.50
2017-08-04T10:32:14.874Z,1.30
2017-08-04T10:34:43.154Z,1.10
2017-08-04T10:37:11.419Z,1.50
2017-08-04T10:39:38.983Z,1.27
2017-08-04T10:42:07.265Z,1.20
2017-08-04T10:44:35.526Z,1.40
2017-08-04T10:47:03.018Z,1.37
2017-08-04T10:49:30.556Z,1.27
2017-08-04T10:51:58.796Z,1.47
2017-08-04T10:54:26.397Z,1.37
2017-08-04T10:56:54.669Z,1.10
2017-08-04T10:59:22.941Z,1.30
2017-08-04T11:01:51.177Z,1.33
2017-08-04T11:04:18.683Z,1.43
2017-08-04T11:06:46.962Z,1.37
2017-08-04T11:09:15.233Z,1.20
2017-08-04T11:11:43.511Z,1.20
2017-08-04T11:14:11.795Z,1.40
2017-08-04T11:16:40.162Z,1.30
2017-08-04T11:19:08.403Z,1.20
2017-08-04T11:21:35.889Z,1.30
2017-08-04T11:24:03.460Z,1.40
2017-08-04T11:26:31.734Z,1.20
2017-08-04T11:29:00.011Z,1.27
2017-08-04T11:31:28.270Z,1.20
2017-08-04T11:33:55.848Z,1.50
2017-08-04T11:36:24.093Z,1.40
2017-08-04T11:38:51.678Z,1.30
2017-08-04T11:41:19.244Z,1.40
2017-08-04T11:43:47.506Z,1.30
2017-08-04T11:46:15.089Z,1.30
2017-08-04T11:48:43.453Z,1.50
2017-08-04T11:51:11.746Z,1.30
2017-08-04T11:53:40.013Z,1.10
2017-08-04T11:56:08.270Z,1.50
2017-08-04T11:58:35.838Z,1.30
2017-08-04T12:01:04.116Z,1.37
2017-08-04T12:03:32.362Z,1.30
2017-08-04T12:05:59.963Z,1.20
2017-08-04T12:08:28.241Z,1.50
2017-08-04T12:10:56.495Z,1.23
2017-08-04T12:13:24.069Z,1.40
2017-08-04T12:15:51.580Z,1.50
2017-08-04T12:18:19.086Z,1.30
2017-08-04T12:20:47.353Z,1.20
2017-08-04T12:23:14.922Z,1.40
2017-08-04T12:25:43.306Z,0.90
2017-08-04T12:28:11.572Z,1.33
2017-08-04T12:30:39.845Z,1.20
2017-08-04T12:33:07.342Z,1.03
2017-08-04T12:35:34.870Z,1.50
2017-08-04T12:38:03.131Z,1.17
2017-08-04T12:40:30.710Z,1.37
2017-08-04T12:42:58.956Z,1.50
2017-08-04T12:45:26.436Z,1.20
2017-08-04T12:47:53.923Z,1.20
2017-08-04T12:50:21.463Z,1.57
2017-08-04T12:52:49.701Z,1.27
2017-08-04T12:55:17.294Z,1.50
2017-08-04T12:57:45.571Z,1.33
2017-08-04T13:00:13.849Z,1.40
2017-08-04T13:02:42.122Z,1.60
2017-08-04T13:05:10.574Z,1.80
2017-08-04T13:07:38.062Z,1.50
2017-08-04T13:10:06.455Z,1.50
2017-08-04T13:12:33.931Z,1.30
2017-08-04T13:15:01.470Z,1.30
2017-08-04T13:17:29.015Z,1.40
2017-08-04T13:19:56.489Z,1.20
2017-08-04T13:22:24.038Z,1.33
2017-08-04T13:24:52.327Z,1.30
2017-08-04T13:27:19.792Z,1.50
2017-08-04T13:29:47.285Z,1.50
2017-08-04T13:32:14.789Z,1.63
2017-08-04T13:34:43.042Z,1.60
2017-08-04T13:37:10.615Z,1.90
2017-08-04T13:39:38.880Z,1.40
2017-08-04T13:42:06.445Z,1.53
2017-08-04T13:44:34.010Z,1.57
2017-08-04T13:47:02.398Z,1.57
2017-08-04T13:49:30.662Z,1.63
2017-08-04T13:51:58.939Z,1.73
2017-08-04T13:54:27.217Z,1.70
2017-08-04T13:56:55.509Z,1.70
2017-08-04T13:59:23.775Z,1.90
2017-08-04T14:01:52.065Z,1.53
2017-08-04T14:04:19.610Z,1.50
2017-08-04T14:06:47.886Z,1.53
2017-08-04T14:09:16.164Z,1.47
2017-08-04T14:11:44.430Z,1.50
2017-08-04T14:14:12.005Z,1.47
2017-08-04T14:16:40.264Z,1.63
2017-08-04T14:19:07.763Z,1.67
2017-08-04T14:21:35.296Z,1.20
2017-08-04T14:24:03.567Z,1.70
2017-08-04T14:26:31.845Z,1.83
2017-08-04T14:29:00.118Z,1.57
2017-08-04T14:31:28.394Z,1.80
2017-08-04T14:33:57.498Z,1.80
2017-08-04T14:36:25.761Z,1.40
2017-08-04T14:38:54.055Z,1.20
2017-08-04T14:41:22.322Z,1.30
2017-08-04T14:43:50.585Z,1.50
2017-08-04T14:46:18.083Z,1.30
2017-08-04T14:48:45.708Z,1.70
2017-08-04T14:51:13.195Z,1.70
2017-08-04T14:53:40.674Z,1.90
2017-08-04T14:56:08.186Z,1.60
2017-08-04T14:58:36.470Z,1.57
2017-08-04T15:01:04.741Z,1.80
2017-08-04T15:03:32.301Z,1.70
2017-08-04T15:06:00.557Z,2.00
2017-08-04T15:08:28.072Z,1.67
2017-08-04T15:10:55.605Z,1.43
2017-08-04T15:13:23.894Z,1.40
2017-08-04T15:15:51.424Z,1.37
2017-08-04T15:18:19.007Z,1.47
2017-08-04T15:20:46.529Z,1.90
2017-08-04T15:23:14.005Z,1.30
2017-08-04T15:25:42.242Z,1.80
2017-08-04T15:28:09.735Z,1.63
2017-08-04T15:30:37.299Z,1.70
2017-08-04T15:33:11.299Z,1.70
2017-08-04T15:35:38.781Z,1.70
2017-08-04T15:38:07.037Z,1.40
2017-08-04T15:40:34.503Z,1.50
2017-08-04T15:43:02.793Z,1.67
2017-08-04T15:45:31.046Z,1.40
2017-08-04T15:47:58.619Z,1.20
2017-08-04T15:50:26.894Z,1.63
2017-08-04T15:52:55.143Z,1.50
2017-08-04T15:55:22.642Z,1.50
2017-08-04T15:57:50.122Z,1.30
2017-08-04T16:00:17.641Z,1.60
2017-08-04T16:02:45.909Z,1.63
2017-08-04T16:05:13.681Z,1.43
2017-08-04T16:07:41.973Z,1.50
2017-08-04T16:10:10.243Z,1.70
2017-08-04T16:12:38.516Z,1.50
2017-08-04T16:15:06.789Z,1.20
2017-08-04T16:17:35.036Z,1.57
2017-08-04T16:20:02.522Z,1.60
2017-08-04T16:22:30.800Z,1.43
2017-08-04T16:24:59.075Z,1.37
2017-08-04T16:27:27.370Z,1.70
2017-08-04T16:29:54.907Z,1.73
2017-08-04T16:32:23.177Z,1.20
2017-08-04T16:34:50.744Z,1.60
2017-08-04T16:37:19.026Z,1.20
2017-08-04T16:39:47.297Z,1.50
2017-08-04T16:42:15.578Z,1.30
2017-08-04T16:44:43.804Z,1.40
2017-08-04T16:47:11.293Z,1.50
2017-08-04T16:49:38.774Z,1.60
2017-08-04T16:52:07.029Z,1.40
2017-08-04T16:54:34.599Z,1.50
2017-08-04T16:57:02.881Z,1.70
2017-08-04T16:59:31.139Z,1.70
2017-08-04T17:01:58.716Z,3.60
2017-08-04T17:04:26.991Z,2.53
2017-08-04T17:06:55.271Z,1.70
2017-08-04T17:09:23.543Z,1.80
2017-08-04T17:11:51.806Z,1.90
2017-08-04T17:14:19.281Z,1.50
2017-08-04T17:16:47.558Z,1.67
2017-08-04T17:19:15.832Z,1.93
2017-08-04T17:21:44.212Z,1.57
2017-08-04T17:24:12.459Z,1.80
2017-08-04T17:26:40.051Z,1.80
2017-08-04T17:29:08.319Z,1.70
2017-08-04T17:31:36.594Z,1.97
2017-08-04T17:34:04.869Z,1.60
2017-08-04T17:36:32.345Z,1.90
2017-08-04T17:38:59.886Z,1.80
2017-08-04T17:41:28.166Z,2.20
2017-08-04T17:43:56.434Z,3.37
2017-08-04T17:46:24.720Z,2.20
2017-08-04T17:48:52.988Z,2.90
2017-08-04T17:51:20.570Z,2.97
2017-08-04T17:53:48.847Z,3.70
2017-08-04T17:56:16.396Z,4.10
2017-08-04T17:58:44.663Z,2.10
2017-08-04T18:01:12.903Z,1.83
2017-08-04T18:03:40.421Z,2.60
2017-08-04T18:06:07.964Z,3.73
2017-08-04T18:08:36.207Z,2.73
2017-08-04T18:11:03.697Z,2.27
2017-08-04T18:13:31.969Z,2.13
2017-08-04T18:16:00.239Z,1.93
2017-08-04T18:18:27.863Z,2.40
2017-08-04T18:20:55.491Z,20.10
2017-08-04T18:23:23.026Z,9.87
2017-08-04T18:25:51.301Z,2.97
2017-08-04T18:28:19.549Z,2.13
2017-08-04T18:30:47.145Z,2.70
2017-08-04T18:33:15.382Z,1.57
2017-08-04T18:35:44.117Z,2.30
2017-08-04T18:38:11.598Z,1.70
2017-08-04T18:40:39.113Z,2.23
2017-08-04T18:43:07.397Z,2.03
2017-08-04T18:48:27.090Z,2.00
2017-08-04T18:50:55.357Z,2.23
2017-08-04T18:53:23.644Z,1.97
2017-08-04T18:55:52.253Z,2.00
2017-08-04T18:58:19.826Z,1.57
2017-08-04T19:00:47.333Z,2.23
2017-08-04T19:03:14.901Z,1.87
2017-08-04T19:05:43.142Z,2.10
2017-08-04T19:08:10.729Z,2.10
2017-08-04T19:10:38.298Z,2.13
2017-08-04T19:13:06.576Z,1.90
2017-08-04T19:15:34.819Z,2.20
2017-08-04T19:18:02.300Z,2.10
2017-08-04T19:20:29.795Z,2.37
2017-08-04T19:22:57.323Z,2.30
2017-08-04T19:25:25.639Z,2.27
2017-08-04T19:27:53.172Z,1.77
2017-08-04T19:30:20.719Z,2.10
2017-08-04T19:32:48.988Z,2.07
2017-08-04T19:35:16.516Z,2.17
2017-08-04T19:37:44.011Z,2.33
2017-08-04T19:40:11.600Z,2.10
2017-08-04T19:42:39.075Z,2.73
2017-08-04T19:45:06.573Z,2.67
2017-08-04T19:47:34.215Z,3.07
2017-08-04T19:50:01.807Z,2.40
2017-08-04T19:52:29.379Z,3.20
2017-08-04T19:54:57.645Z,2.70
2017-08-04T19:57:25.966Z,2.40
2017-08-04T19:59:53.491Z,2.40
2017-08-04T20:02:22.352Z,2.77
2017-08-04T20:04:49.940Z,2.87
2017-08-04T20:07:18.202Z,1.87
2017-08-04T20:09:45.678Z,2.13
2017-08-04T20:12:13.953Z,1.90
2017-08-04T20:14:42.227Z,2.37
2017-08-04T20:17:10.503Z,2.60
2017-08-04T20:19:38.851Z,1.90
2017-08-04T20:22:06.438Z,2.00
2017-08-04T20:24:34.707Z,3.23
2017-08-04T20:27:02.997Z,2.87
2017-08-04T20:29:31.225Z,2.80
2017-08-04T20:31:58.733Z,2.00
2017-08-04T20:34:27.009Z,2.20
2017-08-04T20:36:54.596Z,2.90
2017-08-04T20:39:22.127Z,2.33
2017-08-04T20:41:50.394Z,2.30
2017-08-04T20:44:18.663Z,2.23
2017-08-04T20:46:46.236Z,2.80
2017-08-04T20:49:13.793Z,2.23
2017-08-04T20:51:42.037Z,2.27
2017-08-04T20:54:09.665Z,2.20
2017-08-04T20:56:37.177Z,2.90
2017-08-04T20:59:04.740Z,2.20
2017-08-04T21:01:32.984Z,2.10
2017-08-04T21:04:00.589Z,2.50
2017-08-04T21:06:28.862Z,2.70
2017-08-04T21:08:56.416Z,2.67
2017-08-04T21:11:24.690Z,2.70
2017-08-04T21:13:55.389Z,4.10
2017-08-04T21:16:23.021Z,2.60
2017-08-04T21:18:50.596Z,1.90
2017-08-04T21:21:18.102Z,2.60
2017-08-04T21:23:46.343Z,2.70
2017-08-04T21:26:13.834Z,3.00
2017-08-04T21:28:41.403Z,2.40
2017-08-04T21:31:08.963Z,2.50
2017-08-04T21:33:37.204Z,2.40
2017-08-04T21:36:04.705Z,2.40
2017-08-04T21:38:32.255Z,2.53
2017-08-04T21:41:00.539Z,3.17
2017-08-04T21:43:28.803Z,3.00
2017-08-04T21:45:57.070Z,2.80
2017-08-04T21:48:24.648Z,3.03
2017-08-04T21:50:52.918Z,2.50
2017-08-04T21:53:21.194Z,2.67
2017-08-04T21:55:48.749Z,2.83
2017-08-04T21:58:16.311Z,3.30
2017-08-04T22:00:44.545Z,2.33
2017-08-04T22:03:12.138Z,2.67
2017-08-04T22:05:39.709Z,3.00
2017-08-04T22:08:07.990Z,2.23
2017-08-04T22:10:36.264Z,3.20
2017-08-04T22:13:04.646Z,3.30
2017-08-04T22:15:32.894Z,3.33
2017-08-04T22:18:00.371Z,3.13
2017-08-04T22:20:28.658Z,3.23
2017-08-04T22:22:56.911Z,2.90
2017-08-04T22:25:24.482Z,3.07
2017-08-04T22:27:52.760Z,2.60
2017-08-04T22:30:21.047Z,2.73
2017-08-04T22:32:49.318Z,3.20
2017-08-04T22:35:18.010Z,2.80
2017-08-04T22:37:46.276Z,2.97
2017-08-04T22:40:14.554Z,2.70
2017-08-04T22:42:42.834Z,2.60
2017-08-04T22:45:11.068Z,2.80
2017-08-04T22:47:38.562Z,3.47
2017-08-04T22:50:06.847Z,3.17
2017-08-04T22:52:35.115Z,3.50
2017-08-04T22:55:03.398Z,2.87
2017-08-04T22:57:31.637Z,3.27
2017-08-04T22:59:59.101Z,2.83
2017-08-04T23:02:27.402Z,3.60
2017-08-04T23:04:55.646Z,2.77
2017-08-04T23:07:23.129Z,2.50
2017-08-04T23:09:50.694Z,2.77
2017-08-04T23:12:18.975Z,3.50
2017-08-04T23:14:47.243Z,3.30
2017-08-04T23:17:15.491Z,3.10
2017-08-04T23:19:43.090Z,2.60
2017-08-04T23:22:11.354Z,3.30
2017-08-04T23:24:39.629Z,3.00
2017-08-04T23:27:07.210Z,2.90
2017-08-04T23:29:35.457Z,3.27
2017-08-04T23:32:03.035Z,2.77
2017-08-04T23:34:30.598Z,2.40
2017-08-04T23:36:58.870Z,2.37
2017-08-04T23:39:27.135Z,2.10
2017-08-04T23:41:54.609Z,2.90
2017-08-04T23:44:22.868Z,2.67
2017-08-04T23:46:50.339Z,2.70
2017-08-04T23:49:18.610Z,2.90
2017-08-04T23:51:46.894Z,3.60
2017-08-04T23:54:15.886Z,2.70
2017-08-04T23:56:44.162Z,3.47
2017-08-04T23:59:12.458Z,2.50
